<?xml version="1.0" encoding="UTF-8" standalone="no" ?>
<gpx xmlns="http://www.topografix.com/GPX/1/1" xmlns:xsi="http://www.w3.org/2001/XMLSchema-instance" xsi:schemaLocation="http://www.topografix.com/GPX/1/1 http://www.topografix.com/GPX/1/1/gpx.xsd" version="1.1" creator="VisuGPX - https://www.visugpx.com">
  <metadata>
    <name>Argentina</name>
    <desc><![CDATA[Downloaded from eMap Software Version 2.75]]></desc>
  </metadata>
  <trk>
    <name><![CDATA[Argentina_65]]></name>
    <extensions>
      <line xmlns="http://www.topografix.com/GPX/gpx_style/0/2">
        <color>ff0000</color>
        <opacity>0.78</opacity>
        <width>0.6000</width>
      </line>
    </extensions>
    <trkseg>
      <trkpt lat="-25.6908" lon="-54.51435">
        <ele>238.063599</ele>
        <time>2005-12-13T12:28:09Z</time>
      </trkpt>
      <trkpt lat="-25.69056" lon="-54.51429">
        <ele>238.063599</ele>
        <time>2005-12-13T12:28:10Z</time>
      </trkpt>
      <trkpt lat="-25.68837" lon="-54.51332">
        <ele>231.814941</ele>
        <time>2005-12-13T12:28:20Z</time>
      </trkpt>
      <trkpt lat="-25.68451" lon="-54.51081">
        <ele>224.605225</ele>
        <time>2005-12-13T12:28:39Z</time>
      </trkpt>
      <trkpt lat="-25.67994" lon="-54.50792">
        <ele>203.456177</ele>
        <time>2005-12-13T12:29:01Z</time>
      </trkpt>
      <trkpt lat="-25.67773" lon="-54.50644">
        <ele>204.41748</ele>
        <time>2005-12-13T12:29:12Z</time>
      </trkpt>
      <trkpt lat="-25.67468" lon="-54.50378">
        <ele>225.566528</ele>
        <time>2005-12-13T12:29:31Z</time>
      </trkpt>
      <trkpt lat="-25.67177" lon="-54.50126">
        <ele>227.008545</ele>
        <time>2005-12-13T12:29:50Z</time>
      </trkpt>
      <trkpt lat="-25.6699" lon="-54.49963">
        <ele>232.295776</ele>
        <time>2005-12-13T12:30:03Z</time>
      </trkpt>
      <trkpt lat="-25.66921" lon="-54.49901">
        <ele>236.140991</ele>
        <time>2005-12-13T12:30:11Z</time>
      </trkpt>
      <trkpt lat="-25.66896" lon="-54.49878">
        <ele>239.024902</ele>
        <time>2005-12-13T12:30:19Z</time>
      </trkpt>
      <trkpt lat="-25.66881" lon="-54.49869">
        <ele>240.947632</ele>
        <time>2005-12-13T12:30:30Z</time>
      </trkpt>
      <trkpt lat="-25.66865" lon="-54.49869">
        <ele>240.947632</ele>
        <time>2005-12-13T12:30:34Z</time>
      </trkpt>
      <trkpt lat="-25.6681" lon="-54.49946">
        <ele>240.467041</ele>
        <time>2005-12-13T12:30:44Z</time>
      </trkpt>
      <trkpt lat="-25.66698" lon="-54.50103">
        <ele>239.986206</ele>
        <time>2005-12-13T12:30:57Z</time>
      </trkpt>
      <trkpt lat="-25.66492" lon="-54.50373">
        <ele>239.986206</ele>
        <time>2005-12-13T12:31:13Z</time>
      </trkpt>
      <trkpt lat="-25.6629" lon="-54.50639">
        <ele>239.986206</ele>
        <time>2005-12-13T12:31:27Z</time>
      </trkpt>
      <trkpt lat="-25.65735" lon="-54.51345">
        <ele>239.986206</ele>
        <time>2005-12-13T12:32:02Z</time>
      </trkpt>
      <trkpt lat="-25.64728" lon="-54.52603">
        <ele>239.986206</ele>
        <time>2005-12-13T12:33:06Z</time>
      </trkpt>
    </trkseg>
  </trk>
</gpx>